Pagina principale
METAR-TAF:

METAR-TAF

Aeroporti :

Aeroporto di Viterbo

Viterbo, Italia

latitudine: 42-26N, longitudine: 012-03E, altezza: 300 m

Osservazione

Il bollettino è stato emesso 21 minuti fa, alle 15:55 UTC
Temperature 22°C
Umidità 83%
Pressione 1017 hPa
Visibilità 10 km o più
Poco nuvoloso ad un'altezza di 3500 ft, Cumulonembo.

METAR: LIRV 181555Z /////KT 9999 FEW035CB 22/19 Q1017

Ora: 18:16 (16:16 UTC)

Previsione

Il bollettino è stato emesso 2 ore e 16 minuti fa, alle 14:00 UTC
Previsione valida dal 18 alle 15 UTC al 18 alle 24 UTC
Vento 12 kt da sud-ovest
Visibilità 10 km o più
Nubi sparse ad un'altezza di 2500 ft
Temporaneamente
dal 18 alle 15 UTC al 18 alle 18 UTC
Visibilità: 7000 m
Poco nuvoloso ad un'altezza di 2000 ft, Cumulonembo.
Nuvoloso ad un'altezza di 2500 ft
temporale, pioggia

TAF: LIRV 181400Z 1815/1824 23012KT 9999 SCT025 TEMPO 1815/1818 7000 TSRA FEW020CB BKN025

Osservazioni e previsioni meteorologiche di più di 4000 aeroporti (messaggi METAR e TAF).

Le stazioni disponibili sono rappresentate dai dischi gialli e rossi sulla carta.

Puntare il mouse per vedere il nome della stazione.

Clicca sopra per visualizzare le osservazioni e previsioni meteorologiche.

Per cambiare la mappa : fare clic sui pulsanti verdi con una croce nera per ingrandire, il pulsante verde con un trattino per diminuire, o sulla freccia verde per le mappe adiacenti.


METAR-TAF: